sensor_id;sensor_type;location;lat;lon;timestamp;P1;durP1;ratioP1;P2;durP2;ratioP2
25980;SDS011;13772;52.996;9.124;2023-05-10T06:30:38;7.93;;;5.10;;
25980;SDS011;13772;52.996;9.124;2023-05-10T06:33:03;5.93;;;5.15;;
25980;SDS011;13772;52.996;9.124;2023-05-10T06:35:28;9.98;;;5.15;;
25980;SDS011;13772;52.996;9.124;2023-05-10T06:37:54;9.20;;;5.45;;
25980;SDS011;13772;52.996;9.124;2023-05-10T06:40:19;7.47;;;5.38;;
25980;SDS011;13772;52.996;9.124;2023-05-10T06:42:45;10.10;;;5.93;;
25980;SDS011;13772;52.996;9.124;2023-05-10T06:45:11;7.88;;;6.00;;
25980;SDS011;13772;52.996;9.124;2023-05-10T06:47:36;8.25;;;6.45;;
25980;SDS011;13772;52.996;9.124;2023-05-10T06:50:01;9.20;;;6.55;;
25980;SDS011;13772;52.996;9.124;2023-05-10T06:52:27;10.18;;;6.70;;
25980;SDS011;13772;52.996;9.124;2023-05-10T06:54:52;12.07;;;6.78;;
25980;SDS011;13772;52.996;9.124;2023-05-10T06:57:17;8.65;;;6.63;;
25980;SDS011;13772;52.996;9.124;2023-05-10T06:59:43;8.50;;;6.30;;
25980;SDS011;13772;52.996;9.124;2023-05-10T07:02:08;10.85;;;6.97;;
25980;SDS011;13772;52.996;9.124;2023-05-10T07:04:33;8.80;;;6.93;;
25980;SDS011;13772;52.996;9.124;2023-05-10T07:06:58;9.40;;;7.13;;
25980;SDS011;13772;52.996;9.124;2023-05-10T07:09:24;10.73;;;6.75;;
25980;SDS011;13772;52.996;9.124;2023-05-10T07:11:49;10.90;;;7.32;;
25980;SDS011;13772;52.996;9.124;2023-05-10T07:14:14;9.00;;;6.93;;
25980;SDS011;13772;52.996;9.124;2023-05-10T07:16:40;12.25;;;7.40;;
25980;SDS011;13772;52.996;9.124;2023-05-10T07:19:05;10.25;;;7.43;;
25980;SDS011;13772;52.996;9.124;2023-05-10T07:21:30;14.43;;;7.30;;
25980;SDS011;13772;52.996;9.124;2023-05-10T07:23:56;10.32;;;8.00;;
25980;SDS011;13772;52.996;9.124;2023-05-10T07:26:21;13.60;;;9.05;;
25980;SDS011;13772;52.996;9.124;2023-05-10T07:28:46;12.88;;;8.38;;
25980;SDS011;13772;52.996;9.124;2023-05-10T07:31:12;10.05;;;8.35;;
25980;SDS011;13772;52.996;9.124;2023-05-10T07:33:37;9.00;;;7.60;;
25980;SDS011;13772;52.996;9.124;2023-05-10T07:36:02;11.95;;;8.45;;
25980;SDS011;13772;52.996;9.124;2023-05-10T07:38:27;9.48;;;7.97;;
25980;SDS011;13772;52.996;9.124;2023-05-10T07:40:52;11.93;;;8.25;;
25980;SDS011;13772;52.996;9.124;2023-05-10T07:43:18;12.52;;;9.07;;
25980;SDS011;13772;52.996;9.124;2023-05-10T07:45:43;10.52;;;8.50;;
25980;SDS011;13772;52.996;9.124;2023-05-10T07:48:08;9.88;;;8.23;;
25980;SDS011;13772;52.996;9.124;2023-05-10T07:50:33;11.07;;;8.55;;
25980;SDS011;13772;52.996;9.124;2023-05-10T07:52:59;9.55;;;8.02;;
25980;SDS011;13772;52.996;9.124;2023-05-10T07:55:24;11.07;;;8.95;;
25980;SDS011;13772;52.996;9.124;2023-05-10T07:57:49;9.95;;;8.10;;
25980;SDS011;13772;52.996;9.124;2023-05-10T08:00:16;11.77;;;8.75;;
25980;SDS011;13772;52.996;9.124;2023-05-10T08:02:42;11.65;;;9.07;;
25980;SDS011;13772;52.996;9.124;2023-05-10T08:05:07;10.57;;;9.02;;
25980;SDS011;13772;52.996;9.124;2023-05-10T08:07:32;13.13;;;8.85;;
25980;SDS011;13772;52.996;9.124;2023-05-10T08:09:58;9.48;;;8.27;;
25980;SDS011;13772;52.996;9.124;2023-05-10T08:12:23;10.77;;;8.90;;
25980;SDS011;13772;52.996;9.124;2023-05-10T08:14:49;10.05;;;8.18;;
25980;SDS011;13772;52.996;9.124;2023-05-10T08:17:14;11.45;;;9.18;;
25980;SDS011;13772;52.996;9.124;2023-05-10T08:19:39;12.13;;;8.60;;
25980;SDS011;13772;52.996;9.124;2023-05-10T08:22:05;13.23;;;9.68;;
25980;SDS011;13772;52.996;9.124;2023-05-10T08:24:30;11.50;;;8.75;;
25980;SDS011;13772;52.996;9.124;2023-05-10T08:26:55;10.63;;;9.13;;
25980;SDS011;13772;52.996;9.124;2023-05-10T08:29:20;10.35;;;9.15;;
25980;SDS011;13772;52.996;9.124;2023-05-10T08:31:46;13.13;;;9.10;;
25980;SDS011;13772;52.996;9.124;2023-05-10T08:34:11;11.00;;;9.30;;
25980;SDS011;13772;52.996;9.124;2023-05-10T08:36:36;9.63;;;8.50;;
25980;SDS011;13772;52.996;9.124;2023-05-10T08:39:01;11.77;;;9.60;;
25980;SDS011;13772;52.996;9.124;2023-05-10T08:41:27;13.15;;;9.32;;
25980;SDS011;13772;52.996;9.124;2023-05-10T08:43:53;11.18;;;9.48;;
25980;SDS011;13772;52.996;9.124;2023-05-10T08:46:19;12.40;;;8.85;;
25980;SDS011;13772;52.996;9.124;2023-05-10T08:48:45;10.90;;;8.35;;
25980;SDS011;13772;52.996;9.124;2023-05-10T08:51:13;10.65;;;9.02;;
25980;SDS011;13772;52.996;9.124;2023-05-10T08:53:38;9.20;;;7.72;;
25980;SDS011;13772;52.996;9.124;2023-05-10T08:56:04;10.65;;;8.15;;
25980;SDS011;13772;52.996;9.124;2023-05-10T08:58:29;9.05;;;7.90;;
25980;SDS011;13772;52.996;9.124;2023-05-10T09:00:56;9.95;;;7.60;;
25980;SDS011;13772;52.996;9.124;2023-05-10T09:03:21;10.52;;;8.25;;
25980;SDS011;13772;52.996;9.124;2023-05-10T09:05:47;8.93;;;7.88;;
25980;SDS011;13772;52.996;9.124;2023-05-10T09:08:13;9.05;;;7.22;;
25980;SDS011;13772;52.996;9.124;2023-05-10T09:10:40;9.00;;;7.53;;
25980;SDS011;13772;52.996;9.124;2023-05-10T09:13:07;10.27;;;8.27;;
25980;SDS011;13772;52.996;9.124;2023-05-10T09:15:34;8.48;;;7.53;;
25980;SDS011;13772;52.996;9.124;2023-05-10T09:17:59;12.05;;;7.65;;
25980;SDS011;13772;52.996;9.124;2023-05-10T09:20:27;8.68;;;7.25;;
25980;SDS011;13772;52.996;9.124;2023-05-10T09:22:52;7.20;;;6.50;;
25980;SDS011;13772;52.996;9.124;2023-05-10T09:25:17;7.22;;;5.88;;
25980;SDS011;13772;52.996;9.124;2023-05-10T09:27:46;5.70;;;5.10;;
25980;SDS011;13772;52.996;9.124;2023-05-10T09:30:25;5.35;;;4.85;;
25980;SDS011;13772;52.996;9.124;2023-05-10T09:32:50;5.30;;;3.90;;
25980;SDS011;13772;52.996;9.124;2023-05-10T09:35:16;4.28;;;3.30;;
25980;SDS011;13772;52.996;9.124;2023-05-10T09:37:43;5.65;;;4.05;;
25980;SDS011;13772;52.996;9.124;2023-05-10T09:40:12;4.35;;;3.90;;
25980;SDS011;13772;52.996;9.124;2023-05-10T09:42:38;4.93;;;3.50;;
25980;SDS011;13772;52.996;9.124;2023-05-10T09:45:04;4.80;;;3.17;;
25980;SDS011;13772;52.996;9.124;2023-05-10T09:47:31;4.80;;;3.15;;
25980;SDS011;13772;52.996;9.124;2023-05-10T09:49:57;4.55;;;2.55;;
25980;SDS011;13772;52.996;9.124;2023-05-10T09:52:27;3.40;;;2.45;;
25980;SDS011;13772;52.996;9.124;2023-05-10T09:54:53;2.95;;;2.13;;
25980;SDS011;13772;52.996;9.124;2023-05-10T09:57:22;3.08;;;1.90;;
25980;SDS011;13772;52.996;9.124;2023-05-10T09:59:48;4.28;;;2.42;;
25980;SDS011;13772;52.996;9.124;2023-05-10T10:02:13;6.20;;;2.60;;
25980;SDS011;13772;52.996;9.124;2023-05-10T10:04:39;3.85;;;3.00;;
25980;SDS011;13772;52.996;9.124;2023-05-10T10:07:04;4.35;;;3.22;;
25980;SDS011;13772;52.996;9.124;2023-05-10T10:09:30;4.63;;;3.40;;
25980;SDS011;13772;52.996;9.124;2023-05-10T10:11:55;3.42;;;3.00;;
25980;SDS011;13772;52.996;9.124;2023-05-10T10:14:21;3.58;;;2.70;;
25980;SDS011;13772;52.996;9.124;2023-05-10T10:16:48;3.80;;;2.20;;
25980;SDS011;13772;52.996;9.124;2023-05-10T10:19:13;2.90;;;2.38;;
25980;SDS011;13772;52.996;9.124;2023-05-10T10:21:39;4.60;;;2.78;;
25980;SDS011;13772;52.996;9.124;2023-05-10T10:24:05;5.05;;;2.88;;
25980;SDS011;13772;52.996;9.124;2023-05-10T10:26:32;3.42;;;2.42;;
25980;SDS011;13772;52.996;9.124;2023-05-10T10:31:53;3.50;;;2.10;;
25980;SDS011;13772;52.996;9.124;2023-05-10T10:36:46;3.78;;;2.00;;
25980;SDS011;13772;52.996;9.124;2023-05-10T10:39:12;4.13;;;2.30;;
25980;SDS011;13772;52.996;9.124;2023-05-10T10:41:38;5.05;;;2.80;;
25980;SDS011;13772;52.996;9.124;2023-05-10T10:49:20;3.97;;;2.72;;
25980;SDS011;13772;52.996;9.124;2023-05-10T10:54:30;5.00;;;3.28;;
25980;SDS011;13772;52.996;9.124;2023-05-10T10:57:10;6.45;;;3.13;;
25980;SDS011;13772;52.996;9.124;2023-05-10T10:59:35;4.65;;;3.08;;
25980;SDS011;13772;52.996;9.124;2023-05-10T11:02:01;4.25;;;3.28;;
25980;SDS011;13772;52.996;9.124;2023-05-10T11:04:27;4.45;;;2.85;;
25980;SDS011;13772;52.996;9.124;2023-05-10T11:06:52;2.97;;;2.20;;
25980;SDS011;13772;52.996;9.124;2023-05-10T11:09:41;7.43;;;3.13;;
25980;SDS011;13772;52.996;9.124;2023-05-10T11:12:08;4.90;;;2.80;;
25980;SDS011;13772;52.996;9.124;2023-05-10T11:14:33;5.18;;;2.63;;
25980;SDS011;13772;52.996;9.124;2023-05-10T11:16:58;4.72;;;2.70;;
25980;SDS011;13772;52.996;9.124;2023-05-10T11:19:23;4.45;;;2.58;;
25980;SDS011;13772;52.996;9.124;2023-05-10T11:24:29;6.18;;;2.85;;
25980;SDS011;13772;52.996;9.124;2023-05-10T11:26:55;4.45;;;2.85;;
25980;SDS011;13772;52.996;9.124;2023-05-10T11:29:21;4.40;;;2.83;;
25980;SDS011;13772;52.996;9.124;2023-05-10T11:31:46;4.80;;;2.78;;
25980;SDS011;13772;52.996;9.124;2023-05-10T11:34:33;4.40;;;2.13;;
25980;SDS011;13772;52.996;9.124;2023-05-10T11:36:59;3.03;;;1.48;;
25980;SDS011;13772;52.996;9.124;2023-05-10T11:39:28;2.80;;;1.50;;
25980;SDS011;13772;52.996;9.124;2023-05-10T11:41:54;2.83;;;1.50;;
25980;SDS011;13772;52.996;9.124;2023-05-10T11:44:19;3.72;;;1.65;;
25980;SDS011;13772;52.996;9.124;2023-05-10T11:46:45;4.20;;;1.98;;
25980;SDS011;13772;52.996;9.124;2023-05-10T11:49:10;2.35;;;1.30;;
25980;SDS011;13772;52.996;9.124;2023-05-10T11:51:36;4.40;;;1.55;;
25980;SDS011;13772;52.996;9.124;2023-05-10T11:54:05;3.92;;;1.85;;
25980;SDS011;13772;52.996;9.124;2023-05-10T11:56:32;6.00;;;1.90;;
25980;SDS011;13772;52.996;9.124;2023-05-10T11:58:57;4.65;;;2.15;;
25980;SDS011;13772;52.996;9.124;2023-05-10T12:01:23;3.83;;;2.25;;
25980;SDS011;13772;52.996;9.124;2023-05-10T12:03:49;2.78;;;1.60;;
25980;SDS011;13772;52.996;9.124;2023-05-10T12:06:15;4.15;;;2.20;;
25980;SDS011;13772;52.996;9.124;2023-05-10T12:08:44;3.05;;;2.08;;
25980;SDS011;13772;52.996;9.124;2023-05-10T12:11:09;3.95;;;2.30;;
25980;SDS011;13772;52.996;9.124;2023-05-10T12:13:40;4.75;;;2.28;;
25980;SDS011;13772;52.996;9.124;2023-05-10T12:16:13;4.20;;;2.38;;
25980;SDS011;13772;52.996;9.124;2023-05-10T12:18:39;5.13;;;2.15;;
25980;SDS011;13772;52.996;9.124;2023-05-10T12:21:05;4.47;;;1.83;;
25980;SDS011;13772;52.996;9.124;2023-05-10T12:23:30;2.72;;;1.92;;
25980;SDS011;13772;52.996;9.124;2023-05-10T12:26:01;2.83;;;1.80;;
25980;SDS011;13772;52.996;9.124;2023-05-10T12:28:26;1.88;;;1.60;;
25980;SDS011;13772;52.996;9.124;2023-05-10T12:30:54;3.25;;;1.83;;
25980;SDS011;13772;52.996;9.124;2023-05-10T12:33:19;3.25;;;1.30;;
25980;SDS011;13772;52.996;9.124;2023-05-10T12:38:29;2.95;;;1.52;;
25980;SDS011;13772;52.996;9.124;2023-05-10T12:40:56;2.88;;;1.92;;
25980;SDS011;13772;52.996;9.124;2023-05-10T12:43:21;3.35;;;1.77;;
25980;SDS011;13772;52.996;9.124;2023-05-10T12:45:47;2.92;;;1.40;;
25980;SDS011;13772;52.996;9.124;2023-05-10T12:48:14;1.15;;;0.70;;
25980;SDS011;13772;52.996;9.124;2023-05-10T12:50:39;1.83;;;0.40;;
25980;SDS011;13772;52.996;9.124;2023-05-10T12:53:04;1.33;;;0.32;;
25980;SDS011;13772;52.996;9.124;2023-05-10T12:55:29;0.93;;;0.57;;
25980;SDS011;13772;52.996;9.124;2023-05-10T12:57:55;0.20;;;0.20;;
25980;SDS011;13772;52.996;9.124;2023-05-10T13:00:20;0.15;;;0.15;;
25980;SDS011;13772;52.996;9.124;2023-05-10T13:02:45;1.27;;;0.22;;
25980;SDS011;13772;52.996;9.124;2023-05-10T13:05:11;1.55;;;0.35;;
25980;SDS011;13772;52.996;9.124;2023-05-10T13:07:38;1.27;;;0.30;;
25980;SDS011;13772;52.996;9.124;2023-05-10T13:10:03;0.70;;;0.60;;
25980;SDS011;13772;52.996;9.124;2023-05-10T13:12:28;1.38;;;0.60;;
25980;SDS011;13772;52.996;9.124;2023-05-10T13:14:54;1.80;;;0.60;;
25980;SDS011;13772;52.996;9.124;2023-05-10T13:17:19;2.15;;;0.70;;
25980;SDS011;13772;52.996;9.124;2023-05-10T13:19:44;0.63;;;0.63;;
25980;SDS011;13772;52.996;9.124;2023-05-10T13:22:10;0.90;;;0.60;;
25980;SDS011;13772;52.996;9.124;2023-05-10T13:24:35;0.80;;;0.63;;
25980;SDS011;13772;52.996;9.124;2023-05-10T13:27:00;0.75;;;0.70;;
25980;SDS011;13772;52.996;9.124;2023-05-10T13:29:25;1.90;;;0.85;;
25980;SDS011;13772;52.996;9.124;2023-05-10T13:31:51;1.45;;;0.70;;
25980;SDS011;13772;52.996;9.124;2023-05-10T13:34:16;2.38;;;0.80;;
25980;SDS011;13772;52.996;9.124;2023-05-10T13:36:41;0.82;;;0.63;;
25980;SDS011;13772;52.996;9.124;2023-05-10T13:39:07;2.00;;;0.45;;
25980;SDS011;13772;52.996;9.124;2023-05-10T13:41:32;2.72;;;0.57;;
25980;SDS011;13772;52.996;9.124;2023-05-10T13:43:57;0.30;;;0.20;;
25980;SDS011;13772;52.996;9.124;2023-05-10T13:46:22;0.55;;;0.30;;
25980;SDS011;13772;52.996;9.124;2023-05-10T13:48:48;0.90;;;0.40;;
25980;SDS011;13772;52.996;9.124;2023-05-10T13:51:13;1.38;;;0.55;;
25980;SDS011;13772;52.996;9.124;2023-05-10T13:53:38;3.58;;;0.55;;
25980;SDS011;13772;52.996;9.124;2023-05-10T13:56:03;0.88;;;0.50;;
25980;SDS011;13772;52.996;9.124;2023-05-10T13:58:29;0.40;;;0.40;;
25980;SDS011;13772;52.996;9.124;2023-05-10T14:00:55;0.63;;;0.40;;
25980;SDS011;13772;52.996;9.124;2023-05-10T14:03:20;2.88;;;0.50;;
25980;SDS011;13772;52.996;9.124;2023-05-10T14:05:45;1.65;;;0.30;;
25980;SDS011;13772;52.996;9.124;2023-05-10T14:08:11;1.45;;;0.70;;
25980;SDS011;13772;52.996;9.124;2023-05-10T14:10:38;2.30;;;0.40;;
25980;SDS011;13772;52.996;9.124;2023-05-10T14:13:03;0.30;;;0.30;;
25980;SDS011;13772;52.996;9.124;2023-05-10T14:15:28;0.93;;;0.40;;
25980;SDS011;13772;52.996;9.124;2023-05-10T14:17:53;1.67;;;0.40;;
25980;SDS011;13772;52.996;9.124;2023-05-10T14:20:18;0.95;;;0.55;;
25980;SDS011;13772;52.996;9.124;2023-05-10T14:22:44;1.25;;;0.68;;
25980;SDS011;13772;52.996;9.124;2023-05-10T14:25:09;1.23;;;0.63;;
25980;SDS011;13772;52.996;9.124;2023-05-10T14:27:34;1.48;;;0.70;;
25980;SDS011;13772;52.996;9.124;2023-05-10T14:29:59;0.85;;;0.70;;
25980;SDS011;13772;52.996;9.124;2023-05-10T14:32:24;1.58;;;1.02;;
25980;SDS011;13772;52.996;9.124;2023-05-10T14:34:51;1.42;;;0.73;;
25980;SDS011;13772;52.996;9.124;2023-05-10T14:37:17;1.52;;;0.70;;
25980;SDS011;13772;52.996;9.124;2023-05-10T14:39:42;1.25;;;0.57;;
25980;SDS011;13772;52.996;9.124;2023-05-10T14:42:07;0.98;;;0.60;;
25980;SDS011;13772;52.996;9.124;2023-05-10T14:44:32;1.90;;;0.90;;
25980;SDS011;13772;52.996;9.124;2023-05-10T14:46:58;1.50;;;0.75;;
25980;SDS011;13772;52.996;9.124;2023-05-10T14:49:23;0.85;;;0.60;;
25980;SDS011;13772;52.996;9.124;2023-05-10T14:51:50;2.40;;;0.77;;
25980;SDS011;13772;52.996;9.124;2023-05-10T14:54:15;2.38;;;0.68;;
25980;SDS011;13772;52.996;9.124;2023-05-10T14:56:41;2.95;;;0.50;;
25980;SDS011;13772;52.996;9.124;2023-05-10T14:59:07;2.15;;;0.60;;
25980;SDS011;13772;52.996;9.124;2023-05-10T15:01:32;1.67;;;0.50;;
25980;SDS011;13772;52.996;9.124;2023-05-10T15:03:58;2.70;;;0.52;;
25980;SDS011;13772;52.996;9.124;2023-05-10T15:06:23;1.85;;;0.57;;
25980;SDS011;13772;52.996;9.124;2023-05-10T15:08:55;1.10;;;0.43;;
25980;SDS011;13772;52.996;9.124;2023-05-10T15:11:20;1.43;;;0.60;;
25980;SDS011;13772;52.996;9.124;2023-05-10T15:13:45;2.70;;;0.55;;
25980;SDS011;13772;52.996;9.124;2023-05-10T15:16:10;1.97;;;0.60;;
25980;SDS011;13772;52.996;9.124;2023-05-10T15:18:35;2.67;;;0.70;;
25980;SDS011;13772;52.996;9.124;2023-05-10T15:21:01;1.60;;;0.70;;
25980;SDS011;13772;52.996;9.124;2023-05-10T15:23:26;1.67;;;0.60;;
25980;SDS011;13772;52.996;9.124;2023-05-10T15:25:51;1.42;;;0.75;;
25980;SDS011;13772;52.996;9.124;2023-05-10T15:28:20;1.20;;;0.88;;
25980;SDS011;13772;52.996;9.124;2023-05-10T15:30:45;1.73;;;1.00;;
25980;SDS011;13772;52.996;9.124;2023-05-10T15:33:10;1.30;;;0.87;;
25980;SDS011;13772;52.996;9.124;2023-05-10T15:35:35;2.83;;;0.90;;
25980;SDS011;13772;52.996;9.124;2023-05-10T15:38:03;2.33;;;0.98;;
25980;SDS011;13772;52.996;9.124;2023-05-10T15:40:28;2.40;;;1.20;;
25980;SDS011;13772;52.996;9.124;2023-05-10T15:42:53;1.92;;;0.95;;
25980;SDS011;13772;52.996;9.124;2023-05-10T15:45:19;6.43;;;1.52;;
25980;SDS011;13772;52.996;9.124;2023-05-10T15:47:44;3.75;;;1.10;;
25980;SDS011;13772;52.996;9.124;2023-05-10T15:50:10;3.10;;;1.25;;
25980;SDS011;13772;52.996;9.124;2023-05-10T15:52:36;2.38;;;1.17;;
25980;SDS011;13772;52.996;9.124;2023-05-10T15:55:01;1.75;;;1.20;;
25980;SDS011;13772;52.996;9.124;2023-05-10T15:57:28;3.72;;;1.40;;
25980;SDS011;13772;52.996;9.124;2023-05-10T15:59:53;2.40;;;1.20;;
25980;SDS011;13772;52.996;9.124;2023-05-10T16:02:18;4.55;;;1.30;;
25980;SDS011;13772;52.996;9.124;2023-05-10T16:04:43;1.92;;;1.40;;
25980;SDS011;13772;52.996;9.124;2023-05-10T16:07:09;3.17;;;1.00;;
25980;SDS011;13772;52.996;9.124;2023-05-10T16:09:34;2.15;;;0.90;;
25980;SDS011;13772;52.996;9.124;2023-05-10T16:11:59;2.95;;;1.08;;
25980;SDS011;13772;52.996;9.124;2023-05-10T16:14:26;1.70;;;1.15;;
25980;SDS011;13772;52.996;9.124;2023-05-10T16:16:51;2.90;;;1.40;;
25980;SDS011;13772;52.996;9.124;2023-05-10T16:19:16;2.63;;;1.48;;
25980;SDS011;13772;52.996;9.124;2023-05-10T16:21:42;2.38;;;1.50;;
25980;SDS011;13772;52.996;9.124;2023-05-10T16:24:07;2.10;;;1.40;;
25980;SDS011;13772;52.996;9.124;2023-05-10T16:26:32;2.20;;;1.40;;
25980;SDS011;13772;52.996;9.124;2023-05-10T16:29:03;2.83;;;1.58;;
25980;SDS011;13772;52.996;9.124;2023-05-10T16:31:28;2.85;;;1.42;;
25980;SDS011;13772;52.996;9.124;2023-05-10T16:33:54;3.58;;;2.00;;
25980;SDS011;13772;52.996;9.124;2023-05-10T16:36:19;3.63;;;2.13;;
25980;SDS011;13772;52.996;9.124;2023-05-10T16:38:44;4.78;;;1.73;;
25980;SDS011;13772;52.996;9.124;2023-05-10T16:41:10;1.73;;;1.30;;
25980;SDS011;13772;52.996;9.124;2023-05-10T16:43:35;4.10;;;1.58;;
25980;SDS011;13772;52.996;9.124;2023-05-10T16:46:00;2.85;;;1.48;;
25980;SDS011;13772;52.996;9.124;2023-05-10T16:48:25;1.83;;;1.13;;
25980;SDS011;13772;52.996;9.124;2023-05-10T16:50:51;2.80;;;1.42;;
25980;SDS011;13772;52.996;9.124;2023-05-10T16:53:16;4.05;;;1.35;;
25980;SDS011;13772;52.996;9.124;2023-05-10T16:55:42;2.25;;;1.15;;
25980;SDS011;13772;52.996;9.124;2023-05-10T16:58:07;1.45;;;0.85;;
25980;SDS011;13772;52.996;9.124;2023-05-10T17:00:32;1.00;;;0.70;;
25980;SDS011;13772;52.996;9.124;2023-05-10T17:02:57;2.92;;;0.57;;
25980;SDS011;13772;52.996;9.124;2023-05-10T17:05:23;1.23;;;0.60;;
25980;SDS011;13772;52.996;9.124;2023-05-10T17:07:48;1.13;;;0.60;;
25980;SDS011;13772;52.996;9.124;2023-05-10T17:10:14;0.55;;;0.50;;
25980;SDS011;13772;52.996;9.124;2023-05-10T17:12:39;1.27;;;0.60;;
25980;SDS011;13772;52.996;9.124;2023-05-10T17:15:05;1.33;;;0.60;;
25980;SDS011;13772;52.996;9.124;2023-05-10T17:17:30;0.90;;;0.55;;
25980;SDS011;13772;52.996;9.124;2023-05-10T17:19:56;0.63;;;0.50;;
25980;SDS011;13772;52.996;9.124;2023-05-10T17:22:21;0.90;;;0.60;;
25980;SDS011;13772;52.996;9.124;2023-05-10T17:24:46;1.02;;;0.60;;
25980;SDS011;13772;52.996;9.124;2023-05-10T17:27:12;1.23;;;0.60;;
25980;SDS011;13772;52.996;9.124;2023-05-10T17:29:37;2.28;;;0.70;;
25980;SDS011;13772;52.996;9.124;2023-05-10T17:32:02;1.52;;;0.68;;
25980;SDS011;13772;52.996;9.124;2023-05-10T17:34:28;1.00;;;0.65;;
25980;SDS011;13772;52.996;9.124;2023-05-10T17:36:53;2.65;;;0.80;;
25980;SDS011;13772;52.996;9.124;2023-05-10T17:39:18;2.63;;;0.82;;
25980;SDS011;13772;52.996;9.124;2023-05-10T17:41:44;2.25;;;0.90;;
25980;SDS011;13772;52.996;9.124;2023-05-10T17:44:09;1.55;;;1.05;;
25980;SDS011;13772;52.996;9.124;2023-05-10T17:46:35;2.05;;;1.00;;
25980;SDS011;13772;52.996;9.124;2023-05-10T17:49:00;2.70;;;0.98;;
25980;SDS011;13772;52.996;9.124;2023-05-10T17:51:25;2.05;;;0.90;;
25980;SDS011;13772;52.996;9.124;2023-05-10T17:53:50;2.13;;;0.90;;
25980;SDS011;13772;52.996;9.124;2023-05-10T17:56:16;2.30;;;1.25;;
25980;SDS011;13772;52.996;9.124;2023-05-10T17:58:41;1.77;;;0.98;;
25980;SDS011;13772;52.996;9.124;2023-05-10T18:01:06;2.53;;;1.02;;
25980;SDS011;13772;52.996;9.124;2023-05-10T18:03:31;1.85;;;0.95;;
25980;SDS011;13772;52.996;9.124;2023-05-10T18:05:56;1.55;;;1.00;;
25980;SDS011;13772;52.996;9.124;2023-05-10T18:08:22;2.75;;;1.52;;
25980;SDS011;13772;52.996;9.124;2023-05-10T18:10:50;2.80;;;1.38;;
25980;SDS011;13772;52.996;9.124;2023-05-10T18:13:16;3.95;;;1.33;;
25980;SDS011;13772;52.996;9.124;2023-05-10T18:15:41;2.15;;;1.17;;
25980;SDS011;13772;52.996;9.124;2023-05-10T18:18:07;2.88;;;1.50;;
25980;SDS011;13772;52.996;9.124;2023-05-10T18:20:32;3.53;;;2.00;;
25980;SDS011;13772;52.996;9.124;2023-05-10T18:22:58;2.28;;;1.63;;
25980;SDS011;13772;52.996;9.124;2023-05-10T18:25:23;2.20;;;1.42;;
25980;SDS011;13772;52.996;9.124;2023-05-10T18:27:48;3.50;;;1.77;;
25980;SDS011;13772;52.996;9.124;2023-05-10T18:30:14;3.03;;;1.48;;
25980;SDS011;13772;52.996;9.124;2023-05-10T18:32:39;1.85;;;1.33;;
25980;SDS011;13772;52.996;9.124;2023-05-10T18:35:05;2.25;;;1.60;;
25980;SDS011;13772;52.996;9.124;2023-05-10T18:37:30;3.47;;;1.80;;
25980;SDS011;13772;52.996;9.124;2023-05-10T18:39:56;2.40;;;1.50;;
25980;SDS011;13772;52.996;9.124;2023-05-10T18:42:21;3.78;;;1.83;;
25980;SDS011;13772;52.996;9.124;2023-05-10T18:44:46;2.58;;;1.88;;
25980;SDS011;13772;52.996;9.124;2023-05-10T18:47:12;3.85;;;2.03;;
25980;SDS011;13772;52.996;9.124;2023-05-10T18:49:37;3.05;;;1.92;;
25980;SDS011;13772;52.996;9.124;2023-05-10T18:52:02;2.83;;;1.75;;
25980;SDS011;13772;52.996;9.124;2023-05-10T18:54:28;3.22;;;2.30;;
25980;SDS011;13772;52.996;9.124;2023-05-10T18:56:54;4.00;;;2.33;;
25980;SDS011;13772;52.996;9.124;2023-05-10T18:59:21;4.30;;;2.30;;
25980;SDS011;13772;52.996;9.124;2023-05-10T19:01:46;3.03;;;2.03;;
25980;SDS011;13772;52.996;9.124;2023-05-10T19:04:12;3.92;;;2.17;;
25980;SDS011;13772;52.996;9.124;2023-05-10T19:06:37;2.65;;;2.20;;
25980;SDS011;13772;52.996;9.124;2023-05-10T19:09:02;4.78;;;2.55;;
25980;SDS011;13772;52.996;9.124;2023-05-10T19:11:27;4.70;;;2.55;;
25980;SDS011;13772;52.996;9.124;2023-05-10T19:13:56;3.10;;;2.30;;
25980;SDS011;13772;52.996;9.124;2023-05-10T19:16:21;4.60;;;2.47;;
25980;SDS011;13772;52.996;9.124;2023-05-10T19:18:46;4.05;;;2.67;;
25980;SDS011;13772;52.996;9.124;2023-05-10T19:21:11;3.13;;;2.33;;
25980;SDS011;13772;52.996;9.124;2023-05-10T19:23:37;3.33;;;2.65;;
25980;SDS011;13772;52.996;9.124;2023-05-10T19:26:03;4.18;;;2.40;;
25980;SDS011;13772;52.996;9.124;2023-05-10T19:28:28;3.13;;;2.42;;
25980;SDS011;13772;52.996;9.124;2023-05-10T19:30:53;3.90;;;2.40;;
25980;SDS011;13772;52.996;9.124;2023-05-10T19:33:19;3.08;;;2.15;;
25980;SDS011;13772;52.996;9.124;2023-05-10T19:35:44;3.60;;;2.60;;
25980;SDS011;13772;52.996;9.124;2023-05-10T19:38:10;4.97;;;3.08;;
25980;SDS011;13772;52.996;9.124;2023-05-10T19:40:35;4.85;;;2.65;;
25980;SDS011;13772;52.996;9.124;2023-05-10T19:43:01;4.35;;;2.47;;
25980;SDS011;13772;52.996;9.124;2023-05-10T19:45:26;4.75;;;2.65;;
25980;SDS011;13772;52.996;9.124;2023-05-10T19:47:51;5.43;;;2.70;;
25980;SDS011;13772;52.996;9.124;2023-05-10T19:50:17;5.57;;;2.53;;
25980;SDS011;13772;52.996;9.124;2023-05-10T19:52:42;4.97;;;2.95;;
25980;SDS011;13772;52.996;9.124;2023-05-10T19:55:08;3.97;;;2.53;;
25980;SDS011;13772;52.996;9.124;2023-05-10T19:57:34;4.82;;;2.55;;
25980;SDS011;13772;52.996;9.124;2023-05-10T19:59:59;3.85;;;2.92;;
25980;SDS011;13772;52.996;9.124;2023-05-10T20:02:24;4.25;;;3.47;;
25980;SDS011;13772;52.996;9.124;2023-05-10T20:04:49;4.28;;;3.33;;
25980;SDS011;13772;52.996;9.124;2023-05-10T20:07:15;5.57;;;4.07;;
25980;SDS011;13772;52.996;9.124;2023-05-10T20:09:41;5.07;;;3.78;;
25980;SDS011;13772;52.996;9.124;2023-05-10T20:12:06;4.40;;;3.55;;
25980;SDS011;13772;52.996;9.124;2023-05-10T20:14:31;5.10;;;3.70;;
25980;SDS011;13772;52.996;9.124;2023-05-10T20:16:57;6.85;;;4.18;;
25980;SDS011;13772;52.996;9.124;2023-05-10T20:19:22;5.47;;;4.43;;
25980;SDS011;13772;52.996;9.124;2023-05-10T20:21:47;5.95;;;4.20;;
25980;SDS011;13772;52.996;9.124;2023-05-10T20:24:12;5.38;;;4.28;;
25980;SDS011;13772;52.996;9.124;2023-05-10T20:26:38;5.68;;;4.35;;
25980;SDS011;13772;52.996;9.124;2023-05-10T20:29:03;6.65;;;4.43;;
25980;SDS011;13772;52.996;9.124;2023-05-10T20:31:28;8.20;;;5.32;;
25980;SDS011;13772;52.996;9.124;2023-05-10T20:33:53;6.47;;;4.63;;
25980;SDS011;13772;52.996;9.124;2023-05-10T20:36:18;8.07;;;4.72;;
25980;SDS011;13772;52.996;9.124;2023-05-10T20:38:44;7.57;;;5.68;;
25980;SDS011;13772;52.996;9.124;2023-05-10T20:41:09;6.70;;;5.03;;
25980;SDS011;13772;52.996;9.124;2023-05-10T20:43:34;7.65;;;5.60;;
25980;SDS011;13772;52.996;9.124;2023-05-10T20:46:00;7.43;;;6.50;;
25980;SDS011;13772;52.996;9.124;2023-05-10T20:48:32;8.95;;;5.82;;
25980;SDS011;13772;52.996;9.124;2023-05-10T20:50:57;7.35;;;5.53;;
25980;SDS011;13772;52.996;9.124;2023-05-10T20:53:23;7.32;;;5.55;;
25980;SDS011;13772;52.996;9.124;2023-05-10T20:55:48;7.10;;;6.20;;
25980;SDS011;13772;52.996;9.124;2023-05-10T20:58:13;8.25;;;5.65;;
25980;SDS011;13772;52.996;9.124;2023-05-10T21:00:38;7.85;;;5.82;;
25980;SDS011;13772;52.996;9.124;2023-05-10T21:03:03;7.75;;;5.35;;
25980;SDS011;13772;52.996;9.124;2023-05-10T21:05:29;8.70;;;6.43;;
25980;SDS011;13772;52.996;9.124;2023-05-10T21:07:54;7.20;;;5.32;;
25980;SDS011;13772;52.996;9.124;2023-05-10T21:10:19;8.80;;;6.13;;
25980;SDS011;13772;52.996;9.124;2023-05-10T21:12:45;6.85;;;5.38;;
25980;SDS011;13772;52.996;9.124;2023-05-10T21:15:11;9.77;;;6.22;;
25980;SDS011;13772;52.996;9.124;2023-05-10T21:17:36;6.53;;;5.15;;
25980;SDS011;13772;52.996;9.124;2023-05-10T21:20:01;7.43;;;5.40;;
25980;SDS011;13772;52.996;9.124;2023-05-10T21:22:26;6.43;;;5.25;;
25980;SDS011;13772;52.996;9.124;2023-05-10T21:24:51;7.22;;;5.70;;